หน้าหลัก
METAR-TAF:

METAR-TAF

ท่าอากาศยาน :

East Jakarta, อินโดนีเซีย

ละติจูด: 06-15-59S, ลองจิจูด: 106-53-28E, ความสูง: 25 ม.

การสังเกตสภาพอากาศปัจจุบัน

รายงานได้ทำขึ้นเมื่อ 1 ชั่วโมงและ 38 นาทีที่แล้ว ณ เวลา 17:00 UTC
ลมสงบ
อุณหภูมิ 28°C
ความชื้น 89%
ความกดอากาศ 1010 hPa
ทัศนวิสัย: 6000 ม.
มีเมฆน้อยที่ความสูง 2000 ฟุต

METAR: WIHH 271700Z 00000KT 6000 FEW020 28/26 Q1010 NOSIG METAR

เวลา: 01:38 (18:38 UTC)

การพยากรณ์

รายงานได้ทำขึ้นเมื่อ 1 ชั่วโมงและ 38 นาทีที่แล้ว ณ เวลา 17:00 UTC
การพยากรณ์มีผลตั้งแต่วันที่ 27 ณ เวลา 18 UTC จนถึงวันที่ 28 ณ เวลา 18 UTC
ลม 5 นอตจากตะวันออก/ตะวันออกเฉียงเหนือ
ทัศนวิสัย: 5000 ม.
มีเมฆน้อยที่ความสูง 2000 ฟุต
เมฆหมอก
กำลังกลายเป็น
ตั้งแต่วันที่ 28 ณ เวลา 05 UTC จนถึงวันที่ 28 ณ เวลา 07 UTC
ลม 12 นอตจากตะวันออก/ตะวันออกเฉียงใต้
ทัศนวิสัย: 6000 ม.
มีเมฆกระจายเป็นบางส่วนที่ความสูง 1800 ฟุต

TAF: WIHH 271700Z 2718/2818 06005KT 5000 HZ FEW020 BECMG 2805/2807 12012KT 6000 SCT018

สังเกตการณ์สภาพอากาศและพยากรณ์อากาศของสนามบินมากกว่า 4000 แห่ง (รายงาน METAR และ TAF).

สถานีที่ดูได้จะแสดงไว้ด้วยจุดสีเหลืองและสีแดงบนแผนที่.

เลื่อนเมาส์ไปเหนือจุดเพื่อดูชื่อสถานี.

แล้วคลิกเพื่อดูสังเกตการณ์และการพยากรณ์สภาพอากาศ.

ในการเปลี่ยนแผนที่: คลิกที่ปุ่มสีเขียวที่มีกากบาทสีดำเพื่อซูมเข้า; ที่ปุ่มสีเขียวที่มีขีดเพื่อซูมออก; หรือที่ลูกศรสีเขียวเพื่อไปยังแผนที่ที่อยู่ติดกัน.


METAR-TAF: